logo tempoitalia

Diretta Meteo Winfield-Arkansas City Strother Fld, Stati Uniti (USA)lunedì 31 agosto ore 00:54

Mappa
Sereno 29 °C Sereno 24 Ore: T.min 26 T.max 40
Ponente Sud Km/h 22.2 Punto di rugiada: 16 °C Umidità: 45% Visibilità: 10 Km
Il sole sorge alle: 06:58 Il sole tramonta alle: 19:58
31 Agosto 2026 00:54 tempo osservato: Sereno Sereno 29 45 1013 vento: Nord S 22.2
30 Agosto 2026 23:54 tempo osservato: Sereno Sereno 29 45 1013 vento: Nord S/SE 18.5
30 Agosto 2026 22:54 tempo osservato: Sereno Sereno 29 45 1013 vento: Nord S/SE 16.7
30 Agosto 2026 21:54 tempo osservato: Sereno Sereno 31 40 1012 vento: Nord SE 13
30 Agosto 2026 20:54 tempo osservato: Sereno Sereno 32 38 1012 vento: Nord S/SE 14.8
30 Agosto 2026 19:54 tempo osservato: Sereno Sereno 33 33 1011 vento: Nord S/SE 11.1
30 Agosto 2026 18:54 tempo osservato: Sereno Sereno 37 25 1011 vento: Nord S 20.3
30 Agosto 2026 17:54 tempo osservato: Sereno Sereno 39 24 1011 vento: Nord S 27.8
30 Agosto 2026 16:54 tempo osservato: Sereno Sereno 39 26 1010 vento: Nord S 31.5
30 Agosto 2026 15:54 tempo osservato: Sereno Sereno 40 26 1011 vento: Nord S 31.5
30 Agosto 2026 14:54 tempo osservato: Sereno Sereno 40 24 1012 vento: Nord S/SO 38.8
30 Agosto 2026 13:54 tempo osservato: Sereno Sereno 39 27 1012 vento: Nord S/SO 27.8
30 Agosto 2026 12:54 tempo osservato: Sereno Sereno 38 31 1013 vento: Nord S 29.6
30 Agosto 2026 11:54 tempo osservato: Sereno Sereno 36 34 1014 vento: Nord S 29.6
30 Agosto 2026 10:54 tempo osservato: Sereno Sereno 33 38 1014 vento: Nord S 25.9
30 Agosto 2026 09:54 tempo osservato: Sereno Sereno 31 43 1014 vento: Nord S 27.8
30 Agosto 2026 08:54 tempo osservato: Sereno Sereno 28 48 1015 vento: Nord S 29.6
30 Agosto 2026 07:54 tempo osservato: Sereno Sereno 27 50 1015 vento: Nord S 25.9
30 Agosto 2026 06:54 tempo osservato: Sereno Sereno 26 54 1014 vento: Nord S 20.3
30 Agosto 2026 05:54 tempo osservato: Sereno Sereno 27 47 1014 vento: Nord S 20.3
30 Agosto 2026 04:54 tempo osservato: Sereno Sereno 27 47 1014 vento: Nord S 20.3
30 Agosto 2026 03:54 tempo osservato: Sereno Sereno 26 54 1014 vento: Nord S 20.3
30 Agosto 2026 02:54 tempo osservato: Sereno Sereno 27 50 1014 vento: Nord S 18.5
30 Agosto 2026 01:54 tempo osservato: Sereno Sereno 27 50 1014 vento: Nord S 16.7